sensor_id;sensor_type;location;lat;lon;timestamp;pressure;altitude;pressure_sealevel;temperature;humidity
76519;BME280;67029;51.054;13.798;2023-06-24T00:00:36;101031.55;;;20.66;66.09
76519;BME280;67029;51.054;13.798;2023-06-24T00:03:06;101034.94;;;20.65;66.04
76519;BME280;67029;51.054;13.798;2023-06-24T00:05:36;101040.98;;;20.64;66.27
76519;BME280;67029;51.054;13.798;2023-06-24T00:08:06;101037.44;;;20.64;66.25
76519;BME280;67029;51.054;13.798;2023-06-24T00:10:36;101032.77;;;20.63;66.38
76519;BME280;67029;51.054;13.798;2023-06-24T00:13:06;101025.49;;;20.65;66.37
76519;BME280;67029;51.054;13.798;2023-06-24T00:15:36;101025.32;;;20.65;66.46
76519;BME280;67029;51.054;13.798;2023-06-24T00:18:06;101024.45;;;20.63;66.43
76519;BME280;67029;51.054;13.798;2023-06-24T00:20:36;101027.50;;;20.62;66.60
76519;BME280;67029;51.054;13.798;2023-06-24T00:23:06;101022.06;;;20.65;66.44
76519;BME280;67029;51.054;13.798;2023-06-24T00:25:36;101018.32;;;20.66;66.46
76519;BME280;67029;51.054;13.798;2023-06-24T00:28:06;101015.58;;;20.67;66.43
76519;BME280;67029;51.054;13.798;2023-06-24T00:30:36;101009.27;;;20.68;66.36
76519;BME280;67029;51.054;13.798;2023-06-24T00:33:06;101005.73;;;20.68;66.42
76519;BME280;67029;51.054;13.798;2023-06-24T00:35:36;101002.30;;;20.68;66.40
76519;BME280;67029;51.054;13.798;2023-06-24T00:38:06;101001.06;;;20.69;66.51
76519;BME280;67029;51.054;13.798;2023-06-24T00:40:37;101000.97;;;20.72;66.41
76519;BME280;67029;51.054;13.798;2023-06-24T00:43:07;101001.08;;;20.73;66.37
76519;BME280;67029;51.054;13.798;2023-06-24T00:45:37;101000.23;;;20.74;66.39
76519;BME280;67029;51.054;13.798;2023-06-24T00:48:07;101003.71;;;20.76;66.40
76519;BME280;67029;51.054;13.798;2023-06-24T00:50:37;100995.58;;;20.77;66.31
76519;BME280;67029;51.054;13.798;2023-06-24T00:53:07;100998.28;;;20.76;66.40
76519;BME280;67029;51.054;13.798;2023-06-24T00:55:37;101001.50;;;20.75;66.50
76519;BME280;67029;51.054;13.798;2023-06-24T00:58:08;101003.41;;;20.76;66.40
76519;BME280;67029;51.054;13.798;2023-06-24T01:00:38;101001.54;;;20.74;66.49
76519;BME280;67029;51.054;13.798;2023-06-24T01:03:08;100996.53;;;20.69;66.55
76519;BME280;67029;51.054;13.798;2023-06-24T01:05:39;100992.93;;;20.71;66.74
76519;BME280;67029;51.054;13.798;2023-06-24T01:08:09;100995.62;;;20.72;66.54
76519;BME280;67029;51.054;13.798;2023-06-24T01:10:39;100999.54;;;20.73;66.66
76519;BME280;67029;51.054;13.798;2023-06-24T01:13:09;100997.13;;;20.73;66.73
76519;BME280;67029;51.054;13.798;2023-06-24T01:15:39;101003.05;;;20.75;66.66
76519;BME280;67029;51.054;13.798;2023-06-24T01:18:13;101002.34;;;20.76;66.72
76519;BME280;67029;51.054;13.798;2023-06-24T01:20:59;101002.25;;;20.74;66.77
76519;BME280;67029;51.054;13.798;2023-06-24T01:28:32;100995.54;;;20.64;66.97
76519;BME280;67029;51.054;13.798;2023-06-24T01:33:16;101005.91;;;20.63;66.93
76519;BME280;67029;51.054;13.798;2023-06-24T01:35:44;101003.26;;;20.62;67.19
76519;BME280;67029;51.054;13.798;2023-06-24T01:38:42;101002.62;;;20.67;67.20
76519;BME280;67029;51.054;13.798;2023-06-24T01:40:45;101005.77;;;20.70;67.10
76519;BME280;67029;51.054;13.798;2023-06-24T01:43:17;101005.27;;;20.73;67.04
76519;BME280;67029;51.054;13.798;2023-06-24T01:45:50;101005.77;;;20.74;66.89
76519;BME280;67029;51.054;13.798;2023-06-24T01:48:19;101003.27;;;20.72;67.11
76519;BME280;67029;51.054;13.798;2023-06-24T01:51:00;101003.11;;;20.74;67.17
76519;BME280;67029;51.054;13.798;2023-06-24T01:53:19;101008.27;;;20.74;67.11
76519;BME280;67029;51.054;13.798;2023-06-24T01:55:48;101011.66;;;20.72;67.18
76519;BME280;67029;51.054;13.798;2023-06-24T01:58:17;101005.67;;;20.70;67.24
76519;BME280;67029;51.054;13.798;2023-06-24T02:00:48;101009.66;;;20.71;67.35
76519;BME280;67029;51.054;13.798;2023-06-24T02:03:19;101010.16;;;20.74;67.30
76519;BME280;67029;51.054;13.798;2023-06-24T02:05:49;101006.48;;;20.73;67.34
76519;BME280;67029;51.054;13.798;2023-06-24T02:08:20;101007.72;;;20.74;67.29
76519;BME280;67029;51.054;13.798;2023-06-24T02:10:51;101010.77;;;20.73;67.34
76519;BME280;67029;51.054;13.798;2023-06-24T02:13:21;101009.12;;;20.74;67.29
76519;BME280;67029;51.054;13.798;2023-06-24T02:15:51;101006.75;;;20.73;67.44
76519;BME280;67029;51.054;13.798;2023-06-24T02:18:22;101003.25;;;20.74;67.40
76519;BME280;67029;51.054;13.798;2023-06-24T02:20:52;101005.38;;;20.73;67.41
76519;BME280;67029;51.054;13.798;2023-06-24T02:23:22;101004.89;;;20.72;67.58
76519;BME280;67029;51.054;13.798;2023-06-24T02:25:52;101004.08;;;20.75;67.51
76519;BME280;67029;51.054;13.798;2023-06-24T02:28:22;101005.56;;;20.76;67.49
76519;BME280;67029;51.054;13.798;2023-06-24T02:30:54;101005.82;;;20.78;67.60
76519;BME280;67029;51.054;13.798;2023-06-24T02:33:24;101003.52;;;20.80;67.52
76519;BME280;67029;51.054;13.798;2023-06-24T02:35:54;101006.35;;;20.81;67.52
76519;BME280;67029;51.054;13.798;2023-06-24T02:38:24;101004.92;;;20.85;67.53
76519;BME280;67029;51.054;13.798;2023-06-24T02:40:54;101002.00;;;20.85;67.47
76519;BME280;67029;51.054;13.798;2023-06-24T02:43:24;101001.94;;;20.84;67.53
76519;BME280;67029;51.054;13.798;2023-06-24T02:45:54;100998.53;;;20.83;67.53
76519;BME280;67029;51.054;13.798;2023-06-24T02:48:24;100998.94;;;20.76;67.62
76519;BME280;67029;51.054;13.798;2023-06-24T02:50:55;101005.45;;;20.79;67.79
76519;BME280;67029;51.054;13.798;2023-06-24T02:53:25;101001.45;;;20.84;67.81
76519;BME280;67029;51.054;13.798;2023-06-24T02:55:55;101004.80;;;20.86;67.68
76519;BME280;67029;51.054;13.798;2023-06-24T02:58:25;101005.22;;;20.87;67.68
76519;BME280;67029;51.054;13.798;2023-06-24T03:00:55;101012.74;;;20.88;67.53
76519;BME280;67029;51.054;13.798;2023-06-24T03:03:26;101015.98;;;20.89;67.61
76519;BME280;67029;51.054;13.798;2023-06-24T03:05:57;101016.55;;;20.88;67.58
76519;BME280;67029;51.054;13.798;2023-06-24T03:08:27;101011.20;;;20.83;67.58
76519;BME280;67029;51.054;13.798;2023-06-24T03:10:58;101012.70;;;20.81;67.83
76519;BME280;67029;51.054;13.798;2023-06-24T03:13:28;101014.14;;;20.78;67.84
76519;BME280;67029;51.054;13.798;2023-06-24T03:15:58;101014.51;;;20.78;67.73
76519;BME280;67029;51.054;13.798;2023-06-24T03:18:28;101014.23;;;20.78;67.75
76519;BME280;67029;51.054;13.798;2023-06-24T03:20:58;101008.30;;;20.80;68.00
76519;BME280;67029;51.054;13.798;2023-06-24T03:23:28;101012.36;;;20.81;67.80
76519;BME280;67029;51.054;13.798;2023-06-24T03:25:58;101007.30;;;20.78;67.67
76519;BME280;67029;51.054;13.798;2023-06-24T03:28:31;101015.36;;;20.76;67.76
76519;BME280;67029;51.054;13.798;2023-06-24T03:30:58;101016.75;;;20.74;67.77
76519;BME280;67029;51.054;13.798;2023-06-24T03:33:29;101018.25;;;20.77;67.74
76519;BME280;67029;51.054;13.798;2023-06-24T03:35:59;101015.12;;;20.78;67.74
76519;BME280;67029;51.054;13.798;2023-06-24T03:38:29;101016.65;;;20.80;67.55
76519;BME280;67029;51.054;13.798;2023-06-24T03:40:58;101014.22;;;20.82;67.54
76519;BME280;67029;51.054;13.798;2023-06-24T03:43:29;101018.36;;;20.84;67.51
76519;BME280;67029;51.054;13.798;2023-06-24T03:45:59;101023.33;;;20.82;67.28
76519;BME280;67029;51.054;13.798;2023-06-24T03:48:29;101029.24;;;20.77;67.38
76519;BME280;67029;51.054;13.798;2023-06-24T03:50:59;101035.93;;;20.75;67.37
76519;BME280;67029;51.054;13.798;2023-06-24T03:53:29;101036.90;;;20.71;67.39
76519;BME280;67029;51.054;13.798;2023-06-24T03:55:59;101045.67;;;20.66;67.37
76519;BME280;67029;51.054;13.798;2023-06-24T03:58:29;101050.12;;;20.65;67.46
76519;BME280;67029;51.054;13.798;2023-06-24T04:01:00;101052.11;;;20.65;67.38
76519;BME280;67029;51.054;13.798;2023-06-24T04:03:30;101058.56;;;20.58;67.37
76519;BME280;67029;51.054;13.798;2023-06-24T04:06:00;101059.08;;;20.49;67.53
76519;BME280;67029;51.054;13.798;2023-06-24T04:08:30;101058.76;;;20.47;67.50
76519;BME280;67029;51.054;13.798;2023-06-24T04:11:00;101063.61;;;20.44;67.51
76519;BME280;67029;51.054;13.798;2023-06-24T04:13:30;101063.80;;;20.46;67.59
76519;BME280;67029;51.054;13.798;2023-06-24T04:16:00;101065.14;;;20.47;67.53
76519;BME280;67029;51.054;13.798;2023-06-24T04:18:30;101071.23;;;20.53;67.53
76519;BME280;67029;51.054;13.798;2023-06-24T04:21:00;101077.16;;;20.55;67.33
76519;BME280;67029;51.054;13.798;2023-06-24T04:23:30;101076.39;;;20.50;67.48
76519;BME280;67029;51.054;13.798;2023-06-24T04:26:00;101079.81;;;20.56;67.43
76519;BME280;67029;51.054;13.798;2023-06-24T04:28:30;101080.62;;;20.61;67.41
76519;BME280;67029;51.054;13.798;2023-06-24T04:31:00;101081.09;;;20.64;67.47
76519;BME280;67029;51.054;13.798;2023-06-24T04:33:30;101083.99;;;20.70;67.27
76519;BME280;67029;51.054;13.798;2023-06-24T04:36:00;101084.81;;;20.75;67.14
76519;BME280;67029;51.054;13.798;2023-06-24T04:38:30;101085.91;;;20.79;67.16
76519;BME280;67029;51.054;13.798;2023-06-24T04:41:00;101090.05;;;20.87;66.96
76519;BME280;67029;51.054;13.798;2023-06-24T04:43:30;101094.18;;;20.94;66.84
76519;BME280;67029;51.054;13.798;2023-06-24T04:46:00;101102.33;;;20.91;66.75
76519;BME280;67029;51.054;13.798;2023-06-24T04:48:30;101107.89;;;20.89;66.75
76519;BME280;67029;51.054;13.798;2023-06-24T04:51:00;101107.77;;;20.90;66.83
76519;BME280;67029;51.054;13.798;2023-06-24T04:53:30;101108.89;;;20.89;66.67
76519;BME280;67029;51.054;13.798;2023-06-24T04:56:00;101112.78;;;20.91;66.56
76519;BME280;67029;51.054;13.798;2023-06-24T04:58:30;101106.78;;;20.93;66.51
76519;BME280;67029;51.054;13.798;2023-06-24T05:01:00;101110.84;;;20.94;66.52
76519;BME280;67029;51.054;13.798;2023-06-24T05:03:30;101112.14;;;20.98;66.54
76519;BME280;67029;51.054;13.798;2023-06-24T05:06:00;101111.63;;;21.00;66.50
76519;BME280;67029;51.054;13.798;2023-06-24T05:08:30;101114.59;;;20.95;66.59
76519;BME280;67029;51.054;13.798;2023-06-24T05:11:00;101119.67;;;20.99;66.60
76519;BME280;67029;51.054;13.798;2023-06-24T05:13:30;101117.76;;;21.01;66.49
76519;BME280;67029;51.054;13.798;2023-06-24T05:16:00;101119.12;;;21.05;66.52
76519;BME280;67029;51.054;13.798;2023-06-24T05:18:30;101122.25;;;21.11;66.48
76519;BME280;67029;51.054;13.798;2023-06-24T05:21:00;101119.59;;;21.22;66.44
76519;BME280;67029;51.054;13.798;2023-06-24T05:23:30;101114.13;;;21.22;66.16
76519;BME280;67029;51.054;13.798;2023-06-24T05:26:00;101115.88;;;21.22;66.10
76519;BME280;67029;51.054;13.798;2023-06-24T05:28:30;101114.23;;;21.21;66.04
76519;BME280;67029;51.054;13.798;2023-06-24T05:31:00;101122.17;;;21.16;66.03
76519;BME280;67029;51.054;13.798;2023-06-24T05:33:30;101124.77;;;21.17;66.01
76519;BME280;67029;51.054;13.798;2023-06-24T05:36:00;101124.84;;;21.25;65.77
76519;BME280;67029;51.054;13.798;2023-06-24T05:38:30;101122.17;;;21.29;65.78
76519;BME280;67029;51.054;13.798;2023-06-24T05:41:00;101120.90;;;21.34;65.76
76519;BME280;67029;51.054;13.798;2023-06-24T05:43:30;101114.73;;;21.42;65.68
76519;BME280;67029;51.054;13.798;2023-06-24T05:46:00;101113.63;;;21.49;65.46
76519;BME280;67029;51.054;13.798;2023-06-24T05:48:30;101113.59;;;21.54;65.32
76519;BME280;67029;51.054;13.798;2023-06-24T05:51:00;101118.53;;;21.53;65.28
76519;BME280;67029;51.054;13.798;2023-06-24T05:53:30;101124.41;;;21.59;65.09
76519;BME280;67029;51.054;13.798;2023-06-24T05:56:00;101120.84;;;21.62;65.22
76519;BME280;67029;51.054;13.798;2023-06-24T05:58:30;101123.56;;;21.65;64.93
76519;BME280;67029;51.054;13.798;2023-06-24T06:01:00;101129.64;;;21.62;64.85
76519;BME280;67029;51.054;13.798;2023-06-24T06:03:31;101130.36;;;21.61;64.96
76519;BME280;67029;51.054;13.798;2023-06-24T06:06:01;101132.50;;;21.61;65.07
76519;BME280;67029;51.054;13.798;2023-06-24T06:08:31;101138.73;;;21.62;65.07
76519;BME280;67029;51.054;13.798;2023-06-24T06:11:01;101144.14;;;21.64;65.04
76519;BME280;67029;51.054;13.798;2023-06-24T06:13:31;101143.25;;;21.65;64.96
76519;BME280;67029;51.054;13.798;2023-06-24T06:16:01;101142.27;;;21.60;64.91
76519;BME280;67029;51.054;13.798;2023-06-24T06:18:31;101146.91;;;21.62;64.81
76519;BME280;67029;51.054;13.798;2023-06-24T06:21:01;101146.08;;;21.67;64.49
76519;BME280;67029;51.054;13.798;2023-06-24T06:23:31;101146.97;;;21.66;64.31
76519;BME280;67029;51.054;13.798;2023-06-24T06:26:01;101149.90;;;21.68;64.36
76519;BME280;67029;51.054;13.798;2023-06-24T06:28:34;101151.68;;;21.66;64.38
76519;BME280;67029;51.054;13.798;2023-06-24T06:31:02;101151.52;;;21.69;64.28
76519;BME280;67029;51.054;13.798;2023-06-24T06:33:32;101152.87;;;21.70;64.23
76519;BME280;67029;51.054;13.798;2023-06-24T06:36:02;101149.81;;;21.64;64.16
76519;BME280;67029;51.054;13.798;2023-06-24T06:38:33;101151.86;;;21.59;64.27
76519;BME280;67029;51.054;13.798;2023-06-24T06:41:02;101148.88;;;21.55;64.03
76519;BME280;67029;51.054;13.798;2023-06-24T06:43:35;101149.45;;;21.46;64.04
76519;BME280;67029;51.054;13.798;2023-06-24T06:46:03;101153.74;;;21.36;64.09
76519;BME280;67029;51.054;13.798;2023-06-24T06:48:33;101155.95;;;21.29;64.51
76519;BME280;67029;51.054;13.798;2023-06-24T06:51:03;101149.98;;;21.26;64.53
76519;BME280;67029;51.054;13.798;2023-06-24T06:53:33;101156.19;;;21.18;64.49
76519;BME280;67029;51.054;13.798;2023-06-24T06:56:04;101160.70;;;21.19;64.71
76519;BME280;67029;51.054;13.798;2023-06-24T06:58:34;101163.02;;;21.21;64.58
76519;BME280;67029;51.054;13.798;2023-06-24T07:01:04;101164.17;;;21.20;64.64
76519;BME280;67029;51.054;13.798;2023-06-24T07:03:34;101166.25;;;21.22;64.66
76519;BME280;67029;51.054;13.798;2023-06-24T07:06:04;101165.33;;;21.23;64.80
76519;BME280;67029;51.054;13.798;2023-06-24T07:08:34;101159.20;;;21.28;64.50
76519;BME280;67029;51.054;13.798;2023-06-24T07:11:04;101163.84;;;21.28;64.48
76519;BME280;67029;51.054;13.798;2023-06-24T07:13:34;101162.73;;;21.31;64.68
76519;BME280;67029;51.054;13.798;2023-06-24T07:16:04;101165.47;;;21.35;64.43
76519;BME280;67029;51.054;13.798;2023-06-24T07:18:34;101166.58;;;21.38;64.42
76519;BME280;67029;51.054;13.798;2023-06-24T07:21:04;101169.69;;;21.41;64.24
76519;BME280;67029;51.054;13.798;2023-06-24T07:23:34;101172.24;;;21.41;64.39
76519;BME280;67029;51.054;13.798;2023-06-24T07:26:04;101169.71;;;21.45;64.23
76519;BME280;67029;51.054;13.798;2023-06-24T07:28:34;101168.48;;;21.46;64.08
76519;BME280;67029;51.054;13.798;2023-06-24T07:31:07;101171.83;;;21.42;64.11
76519;BME280;67029;51.054;13.798;2023-06-24T07:33:34;101167.61;;;21.51;63.73
76519;BME280;67029;51.054;13.798;2023-06-24T07:36:05;101164.87;;;21.53;63.52
76519;BME280;67029;51.054;13.798;2023-06-24T07:38:34;101168.84;;;21.58;63.50
76519;BME280;67029;51.054;13.798;2023-06-24T07:41:04;101174.30;;;21.68;63.27
76519;BME280;67029;51.054;13.798;2023-06-24T07:43:34;101172.56;;;21.76;63.32
76519;BME280;67029;51.054;13.798;2023-06-24T07:46:04;101174.36;;;21.86;62.97
76519;BME280;67029;51.054;13.798;2023-06-24T07:48:35;101174.05;;;21.87;62.85
76519;BME280;67029;51.054;13.798;2023-06-24T07:51:05;101169.16;;;21.95;62.67
76519;BME280;67029;51.054;13.798;2023-06-24T07:53:35;101172.73;;;22.09;62.57
76519;BME280;67029;51.054;13.798;2023-06-24T07:56:05;101167.89;;;22.27;62.35
76519;BME280;67029;51.054;13.798;2023-06-24T07:58:38;101161.05;;;22.44;61.84
76519;BME280;67029;51.054;13.798;2023-06-24T08:01:06;101162.65;;;22.55;61.82
76519;BME280;67029;51.054;13.798;2023-06-24T08:03:36;101159.89;;;22.67;61.88
76519;BME280;67029;51.054;13.798;2023-06-24T08:06:06;101160.41;;;22.81;60.69
76519;BME280;67029;51.054;13.798;2023-06-24T08:08:36;101159.12;;;22.93;60.38
76519;BME280;67029;51.054;13.798;2023-06-24T08:11:06;101161.07;;;23.00;60.26
76519;BME280;67029;51.054;13.798;2023-06-24T08:13:36;101160.86;;;23.00;60.17
76519;BME280;67029;51.054;13.798;2023-06-24T08:16:06;101169.95;;;23.09;60.01
76519;BME280;67029;51.054;13.798;2023-06-24T08:18:36;101168.20;;;23.17;59.03
76519;BME280;67029;51.054;13.798;2023-06-24T08:21:06;101171.25;;;23.30;58.58
76519;BME280;67029;51.054;13.798;2023-06-24T08:23:36;101172.09;;;23.38;58.98
76519;BME280;67029;51.054;13.798;2023-06-24T08:26:06;101169.18;;;23.43;57.94
76519;BME280;67029;51.054;13.798;2023-06-24T08:28:36;101170.67;;;23.50;57.69
76519;BME280;67029;51.054;13.798;2023-06-24T08:31:06;101173.72;;;23.64;56.84
76519;BME280;67029;51.054;13.798;2023-06-24T08:33:36;101169.34;;;23.65;55.92
76519;BME280;67029;51.054;13.798;2023-06-24T08:36:06;101169.41;;;23.66;57.22
76519;BME280;67029;51.054;13.798;2023-06-24T08:38:36;101166.55;;;23.79;56.95
76519;BME280;67029;51.054;13.798;2023-06-24T08:41:06;101171.52;;;23.94;56.11
76519;BME280;67029;51.054;13.798;2023-06-24T08:43:36;101172.58;;;24.02;56.60
76519;BME280;67029;51.054;13.798;2023-06-24T08:46:07;101176.38;;;24.15;55.62
76519;BME280;67029;51.054;13.798;2023-06-24T08:48:39;101182.53;;;24.29;55.79
76519;BME280;67029;51.054;13.798;2023-06-24T08:51:11;101179.88;;;24.39;54.49
76519;BME280;67029;51.054;13.798;2023-06-24T08:53:42;101188.73;;;24.51;53.21
76519;BME280;67029;51.054;13.798;2023-06-24T08:56:09;101190.52;;;24.58;53.64
76519;BME280;67029;51.054;13.798;2023-06-24T08:58:44;101187.51;;;24.75;51.83
76519;BME280;67029;51.054;13.798;2023-06-24T09:01:11;101191.52;;;24.90;52.66
76519;BME280;67029;51.054;13.798;2023-06-24T09:03:41;101192.27;;;25.06;52.23
76519;BME280;67029;51.054;13.798;2023-06-24T09:06:12;101189.02;;;25.34;51.01
76519;BME280;67029;51.054;13.798;2023-06-24T09:08:53;101192.69;;;25.55;51.14
76519;BME280;67029;51.054;13.798;2023-06-24T09:11:12;101189.55;;;25.82;49.59
76519;BME280;67029;51.054;13.798;2023-06-24T09:13:42;101187.56;;;26.04;49.78
76519;BME280;67029;51.054;13.798;2023-06-24T09:16:13;101191.17;;;26.29;50.42
76519;BME280;67029;51.054;13.798;2023-06-24T09:18:47;101190.08;;;26.45;47.52
76519;BME280;67029;51.054;13.798;2023-06-24T09:21:24;101191.05;;;26.70;47.47
76519;BME280;67029;51.054;13.798;2023-06-24T09:23:43;101185.88;;;26.93;46.39
76519;BME280;67029;51.054;13.798;2023-06-24T09:26:13;101184.27;;;27.09;46.94
76519;BME280;67029;51.054;13.798;2023-06-24T09:28:48;101185.89;;;27.34;44.76
76519;BME280;67029;51.054;13.798;2023-06-24T09:31:14;101189.09;;;27.55;44.80
76519;BME280;67029;51.054;13.798;2023-06-24T09:33:44;101191.24;;;27.73;45.57
76519;BME280;67029;51.054;13.798;2023-06-24T09:36:15;101190.44;;;27.93;42.69
76519;BME280;67029;51.054;13.798;2023-06-24T09:38:45;101202.53;;;28.02;42.72
76519;BME280;67029;51.054;13.798;2023-06-24T09:41:15;101202.27;;;28.00;43.53
76519;BME280;67029;51.054;13.798;2023-06-24T09:43:45;101195.71;;;28.04;42.68
76519;BME280;67029;51.054;13.798;2023-06-24T09:46:15;101184.91;;;28.20;43.32
76519;BME280;67029;51.054;13.798;2023-06-24T09:48:45;101182.05;;;28.42;42.83
76519;BME280;67029;51.054;13.798;2023-06-24T09:51:16;101176.28;;;28.60;44.14
76519;BME280;67029;51.054;13.798;2023-06-24T09:53:46;101173.53;;;28.77;41.96
76519;BME280;67029;51.054;13.798;2023-06-24T09:56:17;101175.93;;;28.92;41.36
76519;BME280;67029;51.054;13.798;2023-06-24T09:58:46;101178.73;;;29.02;41.91
76519;BME280;67029;51.054;13.798;2023-06-24T10:01:17;101184.92;;;29.11;41.13
76519;BME280;67029;51.054;13.798;2023-06-24T10:03:47;101180.04;;;29.07;39.62
76519;BME280;67029;51.054;13.798;2023-06-24T10:06:17;101181.67;;;29.18;40.83
76519;BME280;67029;51.054;13.798;2023-06-24T10:08:48;101187.27;;;29.40;40.29
76519;BME280;67029;51.054;13.798;2023-06-24T10:11:17;101185.09;;;29.59;38.69
76519;BME280;67029;51.054;13.798;2023-06-24T10:13:47;101178.54;;;29.75;38.30
76519;BME280;67029;51.054;13.798;2023-06-24T10:16:18;101182.36;;;30.03;38.38
76519;BME280;67029;51.054;13.798;2023-06-24T10:18:48;101185.38;;;30.28;37.08
76519;BME280;67029;51.054;13.798;2023-06-24T10:23:52;101180.08;;;30.58;36.75
76519;BME280;67029;51.054;13.798;2023-06-24T10:26:36;101187.39;;;30.66;36.75
76519;BME280;67029;51.054;13.798;2023-06-24T10:29:13;101188.34;;;30.77;36.98
76519;BME280;67029;51.054;13.798;2023-06-24T10:33:54;101187.56;;;31.07;36.65
76519;BME280;67029;51.054;13.798;2023-06-24T10:36:36;101183.45;;;31.18;36.97
76519;BME280;67029;51.054;13.798;2023-06-24T10:38:55;101184.20;;;31.22;36.04
76519;BME280;67029;51.054;13.798;2023-06-24T10:41:25;101186.86;;;31.35;35.41
76519;BME280;67029;51.054;13.798;2023-06-24T10:43:58;101187.55;;;31.42;34.46
76519;BME280;67029;51.054;13.798;2023-06-24T10:46:26;101190.72;;;31.33;35.20
76519;BME280;67029;51.054;13.798;2023-06-24T10:51:25;101186.73;;;31.72;35.06
76519;BME280;67029;51.054;13.798;2023-06-24T10:53:55;101185.81;;;31.92;33.50
76519;BME280;67029;51.054;13.798;2023-06-24T10:56:30;101172.48;;;32.07;33.69
76519;BME280;67029;51.054;13.798;2023-06-24T10:58:55;101163.79;;;32.19;32.71
76519;BME280;67029;51.054;13.798;2023-06-24T11:01:25;101162.66;;;32.24;32.15
76519;BME280;67029;51.054;13.798;2023-06-24T11:03:55;101168.00;;;32.29;33.26
76519;BME280;67029;51.054;13.798;2023-06-24T11:06:25;101156.47;;;32.34;33.49
76519;BME280;67029;51.054;13.798;2023-06-24T11:09:01;101159.81;;;32.41;33.51
76519;BME280;67029;51.054;13.798;2023-06-24T11:11:28;101154.19;;;32.55;32.96
76519;BME280;67029;51.054;13.798;2023-06-24T11:13:56;101159.02;;;32.72;32.59
76519;BME280;67029;51.054;13.798;2023-06-24T11:16:27;101151.55;;;32.91;31.85
76519;BME280;67029;51.054;13.798;2023-06-24T11:19:01;101148.64;;;33.04;32.02
76519;BME280;67029;51.054;13.798;2023-06-24T11:21:33;101149.50;;;33.23;33.04
76519;BME280;67029;51.054;13.798;2023-06-24T11:24:01;101147.14;;;33.45;32.57
76519;BME280;67029;51.054;13.798;2023-06-24T11:26:29;101144.17;;;33.66;31.55
76519;BME280;67029;51.054;13.798;2023-06-24T11:29:00;101135.92;;;33.94;31.53
76519;BME280;67029;51.054;13.798;2023-06-24T11:31:30;101143.78;;;34.09;29.84
76519;BME280;67029;51.054;13.798;2023-06-24T11:34:00;101144.39;;;34.22;30.91
76519;BME280;67029;51.054;13.798;2023-06-24T11:36:31;101132.09;;;34.34;29.58
76519;BME280;67029;51.054;13.798;2023-06-24T11:39:01;101134.77;;;34.42;30.07
76519;BME280;67029;51.054;13.798;2023-06-24T11:41:31;101133.52;;;34.53;30.18
76519;BME280;67029;51.054;13.798;2023-06-24T11:44:02;101138.03;;;34.30;30.31
76519;BME280;67029;51.054;13.798;2023-06-24T11:46:33;101127.16;;;34.42;31.70
76519;BME280;67029;51.054;13.798;2023-06-24T11:49:03;101130.91;;;34.53;30.22
76519;BME280;67029;51.054;13.798;2023-06-24T11:51:34;101131.39;;;34.63;30.32
76519;BME280;67029;51.054;13.798;2023-06-24T11:54:04;101128.16;;;34.82;30.68
76519;BME280;67029;51.054;13.798;2023-06-24T11:56:35;101123.44;;;34.99;29.11
76519;BME280;67029;51.054;13.798;2023-06-24T11:59:18;101128.18;;;34.99;29.37
76519;BME280;67029;51.054;13.798;2023-06-24T12:01:35;101125.20;;;34.99;29.99
76519;BME280;67029;51.054;13.798;2023-06-24T12:04:11;101119.56;;;34.88;30.79
76519;BME280;67029;51.054;13.798;2023-06-24T12:06:37;101118.73;;;35.05;31.75
76519;BME280;67029;51.054;13.798;2023-06-24T12:09:08;101107.58;;;35.22;31.00
76519;BME280;67029;51.054;13.798;2023-06-24T12:11:38;101111.73;;;35.45;30.69
76519;BME280;67029;51.054;13.798;2023-06-24T12:14:07;101106.80;;;35.72;30.06
76519;BME280;67029;51.054;13.798;2023-06-24T12:16:41;101105.55;;;35.94;29.18
76519;BME280;67029;51.054;13.798;2023-06-24T12:19:08;101105.12;;;35.99;29.37
76519;BME280;67029;51.054;13.798;2023-06-24T12:21:39;101097.84;;;36.19;29.42
76519;BME280;67029;51.054;13.798;2023-06-24T12:24:09;101106.73;;;36.43;28.91
76519;BME280;67029;51.054;13.798;2023-06-24T12:26:40;101101.56;;;36.60;29.73
76519;BME280;67029;51.054;13.798;2023-06-24T12:29:10;101102.03;;;36.81;29.79
76519;BME280;67029;51.054;13.798;2023-06-24T12:31:40;101094.93;;;36.84;28.63
76519;BME280;67029;51.054;13.798;2023-06-24T12:34:11;101096.67;;;36.99;28.40
76519;BME280;67029;51.054;13.798;2023-06-24T12:36:41;101098.01;;;37.04;29.15
76519;BME280;67029;51.054;13.798;2023-06-24T12:39:11;101097.84;;;37.08;28.63
76519;BME280;67029;51.054;13.798;2023-06-24T12:41:41;101096.15;;;37.09;27.83
76519;BME280;67029;51.054;13.798;2023-06-24T12:44:11;101086.58;;;37.05;27.13
76519;BME280;67029;51.054;13.798;2023-06-24T12:46:41;101090.00;;;37.14;28.55
76519;BME280;67029;51.054;13.798;2023-06-24T12:49:11;101085.27;;;37.01;26.02
76519;BME280;67029;51.054;13.798;2023-06-24T12:51:41;101097.81;;;36.83;27.20
76519;BME280;67029;51.054;13.798;2023-06-24T12:54:11;101095.00;;;36.80;27.14
76519;BME280;67029;51.054;13.798;2023-06-24T12:56:41;101092.88;;;36.76;27.10
76519;BME280;67029;51.054;13.798;2023-06-24T12:59:11;101083.05;;;36.57;26.05
76519;BME280;67029;51.054;13.798;2023-06-24T13:01:41;101083.61;;;36.41;26.76
76519;BME280;67029;51.054;13.798;2023-06-24T13:04:11;101080.88;;;36.56;27.53
76519;BME280;67029;51.054;13.798;2023-06-24T13:06:41;101074.59;;;36.52;25.57
76519;BME280;67029;51.054;13.798;2023-06-24T13:09:11;101073.86;;;36.30;26.75